createdAt,value
2019-05-15T00:00:09.093Z,792.36
2019-05-15T00:01:09.051Z,792.62
2019-05-15T00:02:10.785Z,792.31
2019-05-15T00:03:08.936Z,793.21
2019-05-15T00:04:09.372Z,793.34
2019-05-15T00:05:09.220Z,793.38
2019-05-15T00:06:08.941Z,793.65
2019-05-15T00:07:08.997Z,793.61
2019-05-15T00:08:09.534Z,793.42
2019-05-15T00:09:08.952Z,794.33
2019-05-15T00:10:09.126Z,794.78
2019-05-15T00:11:08.921Z,794.92
2019-05-15T00:12:08.949Z,794.46
2019-05-15T00:13:09.350Z,794.7
2019-05-15T00:14:08.929Z,794.67
2019-05-15T00:15:09.552Z,794.51
2019-05-15T00:16:08.954Z,794.28
2019-05-15T00:17:08.929Z,793.28
2019-05-15T00:18:08.989Z,792.86
2019-05-15T00:19:08.945Z,792.66
2019-05-15T00:20:09.838Z,792.05
2019-05-15T00:21:09.457Z,791.75
2019-05-15T00:22:08.959Z,792.03
2019-05-15T00:23:08.961Z,791.25
2019-05-15T00:24:13.042Z,790.53
2019-05-15T00:25:09.432Z,789.18
2019-05-15T00:26:09.455Z,787.37
2019-05-15T00:27:08.968Z,786.18
2019-05-15T00:28:09.604Z,784.63
2019-05-15T00:29:15.014Z,783.53
2019-05-15T00:30:08.981Z,783.12
2019-05-15T00:31:09.241Z,783.3
2019-05-15T00:32:09.516Z,782.15
2019-05-15T00:33:09.393Z,781.26
2019-05-15T00:34:29.200Z,780.52
2019-05-15T00:41:10.037Z,778.95
2019-05-15T00:42:10.026Z,778.64
2019-05-15T00:43:09.992Z,778.39
2019-05-15T00:44:09.997Z,778.77
2019-05-15T00:49:28.947Z,777.87
2019-05-15T00:49:41.589Z,775.64
2019-05-15T00:50:41.591Z,775.47
2019-05-15T00:51:41.600Z,775.2
2019-05-15T00:52:41.606Z,775.23
2019-05-15T00:53:41.611Z,775.37
2019-05-15T00:54:41.625Z,775.39
2019-05-15T00:55:41.606Z,775.67
2019-05-15T00:56:41.596Z,775.6
2019-05-15T00:57:41.582Z,775.42
2019-05-15T00:58:41.633Z,775.76
2019-05-15T00:59:41.609Z,775.59
2019-05-15T01:00:41.597Z,775.27
2019-05-15T01:01:41.585Z,775.26
2019-05-15T01:02:41.587Z,773.83
2019-05-15T01:03:41.597Z,775.07
2019-05-15T01:04:41.602Z,775.07
2019-05-15T01:05:41.611Z,775.06
2019-05-15T01:06:41.596Z,775.19
2019-05-15T01:07:41.602Z,773.94
2019-05-15T01:08:41.608Z,773.77
2019-05-15T01:09:41.621Z,773.62
2019-05-15T01:10:41.625Z,773.56
2019-05-15T01:11:41.617Z,772.94
2019-05-15T01:12:41.614Z,772
2019-05-15T01:13:41.602Z,771.96
2019-05-15T01:14:41.607Z,771.52
2019-05-15T01:15:41.611Z,770.86
2019-05-15T01:16:41.623Z,770.88
2019-05-15T01:17:41.606Z,769.6
2019-05-15T01:18:41.612Z,769.46
2019-05-15T01:19:41.621Z,769.34
2019-05-15T01:20:41.633Z,768.36
2019-05-15T01:21:41.612Z,767.41
2019-05-15T01:22:41.617Z,767.04
2019-05-15T01:23:42.024Z,767.96
2019-05-15T01:24:41.633Z,766.77
2019-05-15T01:25:41.644Z,766.42
2019-05-15T01:26:41.623Z,765.79
2019-05-15T01:27:41.618Z,765.24
2019-05-15T01:28:41.638Z,764.73
2019-05-15T01:29:44.947Z,763.74
2019-05-15T01:30:41.640Z,763.78
2019-05-15T01:31:41.637Z,764.42
2019-05-15T01:32:41.647Z,763.43
2019-05-15T01:33:41.638Z,763.35
2019-05-15T01:34:41.623Z,763.45
2019-05-15T01:35:41.631Z,763.25
2019-05-15T01:36:41.659Z,762.3
2019-05-15T01:37:41.640Z,761.82
2019-05-15T01:38:41.651Z,760.77
2019-05-15T01:39:41.651Z,760.28
2019-05-15T01:40:41.664Z,760.29
2019-05-15T01:41:41.653Z,758.75
2019-05-15T01:42:41.657Z,758.85
2019-05-15T01:43:41.668Z,758.01
2019-05-15T01:44:41.670Z,757.58
2019-05-15T01:45:41.651Z,755.66
2019-05-15T01:46:41.657Z,754.84
2019-05-15T01:47:41.641Z,754.06
2019-05-15T01:48:41.669Z,753.98
2019-05-15T01:49:41.655Z,752.94
2019-05-15T01:50:41.652Z,752.67
2019-05-15T01:51:41.649Z,752.07
2019-05-15T01:52:41.683Z,751.83
2019-05-15T01:53:41.648Z,751.96
2019-05-15T01:54:41.677Z,751.75
2019-05-15T01:55:41.654Z,751.49
2019-05-15T01:56:41.671Z,751.96
2019-05-15T01:57:41.675Z,751.31
2019-05-15T01:58:41.677Z,749.76
2019-05-15T01:59:53.829Z,748.14
2019-05-15T02:00:41.675Z,746.58
2019-05-15T02:01:41.717Z,746.57
2019-05-15T02:02:41.679Z,746.13
2019-05-15T02:03:41.666Z,745.82
2019-05-15T02:04:41.673Z,745.52
2019-05-15T02:05:41.661Z,745.31
2019-05-15T02:06:41.666Z,745.02
2019-05-15T02:07:41.684Z,744.5
2019-05-15T02:08:41.691Z,743.76
2019-05-15T02:15:22.475Z,743.58
2019-05-15T02:16:22.443Z,742.61
2019-05-15T02:17:22.407Z,743.09
2019-05-15T02:18:22.535Z,743.21
2019-05-15T02:19:22.439Z,742.25
2019-05-15T02:20:22.495Z,741.95
2019-05-15T02:21:22.454Z,741.83
2019-05-15T02:22:22.458Z,740.9
2019-05-15T02:23:22.428Z,740.54
2019-05-15T02:24:22.516Z,739.36
2019-05-15T02:25:22.419Z,739.09
2019-05-15T02:26:22.428Z,738.24
2019-05-15T02:27:22.451Z,737.93
2019-05-15T02:28:22.442Z,737.44
2019-05-15T02:29:25.032Z,737.09
2019-05-15T02:30:28.769Z,735.95
2019-05-15T02:31:22.458Z,735.19
2019-05-15T02:32:22.447Z,734.21
2019-05-15T02:33:22.430Z,733.85
2019-05-15T02:34:22.461Z,732.42
2019-05-15T02:35:22.444Z,731.49
2019-05-15T02:36:22.449Z,730.93
2019-05-15T02:37:22.458Z,730.37
2019-05-15T02:38:22.471Z,729.33
2019-05-15T02:39:22.456Z,728.69
2019-05-15T02:40:22.461Z,728.83
2019-05-15T02:44:53.225Z,728.79
2019-05-15T02:45:53.166Z,728.74
2019-05-15T02:46:53.201Z,728.62
2019-05-15T02:47:53.203Z,728.41
2019-05-15T02:48:53.176Z,727.9
2019-05-15T02:49:53.153Z,728.21
2019-05-15T02:50:53.190Z,728.19
2019-05-15T02:51:53.188Z,727.9
2019-05-15T02:52:53.234Z,727.53
2019-05-15T02:53:53.190Z,726.86
2019-05-15T02:54:53.195Z,726.47
2019-05-15T02:55:53.193Z,726.55
2019-05-15T02:56:53.187Z,725.85
2019-05-15T02:57:53.187Z,726.27
2019-05-15T02:58:53.222Z,725.62
2019-05-15T02:59:53.172Z,725
2019-05-15T03:00:53.725Z,723.61
2019-05-15T03:01:53.193Z,722.31
2019-05-15T03:02:53.178Z,721.36
2019-05-15T03:03:53.179Z,720.88
2019-05-15T03:04:53.211Z,720.68
2019-05-15T03:05:53.226Z,720.12
2019-05-15T03:06:53.203Z,720.29
2019-05-15T03:07:53.231Z,720.3
2019-05-15T03:08:53.196Z,719.96
2019-05-15T03:09:53.201Z,719.69
2019-05-15T03:10:53.221Z,718.65
2019-05-15T03:11:53.189Z,718.98
2019-05-15T03:12:53.196Z,717.18
2019-05-15T03:13:53.186Z,717.67
2019-05-15T03:14:53.195Z,718
2019-05-15T03:15:53.177Z,718.42
2019-05-15T03:16:53.207Z,718.16
2019-05-15T03:17:53.190Z,717.79
2019-05-15T03:18:55.720Z,716.88
2019-05-15T03:19:53.207Z,716.13
2019-05-15T03:20:53.225Z,715.66
2019-05-15T03:21:53.217Z,714.05
2019-05-15T03:22:53.210Z,712.18
2019-05-15T03:23:53.213Z,711.41
2019-05-15T03:24:53.213Z,710.22
2019-05-15T03:25:53.227Z,708.76
2019-05-15T03:26:53.212Z,708.49
2019-05-15T03:27:53.219Z,707.68
2019-05-15T03:28:53.197Z,705.95
2019-05-15T03:29:53.198Z,704.65
2019-05-15T03:33:00.717Z,701.78
2019-05-15T03:33:53.925Z,701.17
2019-05-15T03:34:55.974Z,701.17
2019-05-15T03:35:54.128Z,701.02
2019-05-15T03:36:53.447Z,700.07
2019-05-15T03:37:52.455Z,700.23
2019-05-15T03:38:52.459Z,699.7
2019-05-15T03:39:52.488Z,700.26
2019-05-15T03:40:52.493Z,699.9
2019-05-15T03:41:52.478Z,701.29
2019-05-15T03:42:52.508Z,701.29
2019-05-15T03:43:59.473Z,702.4
2019-05-15T03:44:52.498Z,703.6
2019-05-15T03:45:52.469Z,703.26
2019-05-15T03:46:52.470Z,703.51
2019-05-15T03:47:52.467Z,703.87
2019-05-15T03:48:52.485Z,703.85
2019-05-15T03:49:52.495Z,704.08
2019-05-15T03:50:52.484Z,703.71
2019-05-15T03:51:52.525Z,703.7
2019-05-15T03:52:52.486Z,703.54
2019-05-15T03:53:52.499Z,702.8
2019-05-15T03:54:52.470Z,702.06
2019-05-15T03:55:52.490Z,702.44
2019-05-15T03:56:52.500Z,701.87
2019-05-15T03:57:52.484Z,702.04
2019-05-15T03:58:52.473Z,701.72
2019-05-15T03:59:52.503Z,701.7
2019-05-15T04:00:52.513Z,701.9
2019-05-15T04:01:52.502Z,700.82
2019-05-15T04:02:52.500Z,699.13
2019-05-15T04:03:52.492Z,698.84
2019-05-15T04:04:56.501Z,697.99
2019-05-15T04:05:52.505Z,697.38
2019-05-15T04:06:52.513Z,696.07
2019-05-15T04:07:52.496Z,694.68
2019-05-15T04:08:52.524Z,693.18
2019-05-15T04:09:52.525Z,691.51
2019-05-15T04:10:52.518Z,690.49
2019-05-15T04:11:52.520Z,689.72
2019-05-15T04:14:13.526Z,688.61
2019-05-15T04:15:13.536Z,687.72
2019-05-15T04:16:13.500Z,688.2
2019-05-15T04:17:13.613Z,688.4
2019-05-15T04:18:13.523Z,689.57
2019-05-15T04:19:13.518Z,690.43
2019-05-15T04:20:13.523Z,690.04
2019-05-15T04:21:13.533Z,691.09
2019-05-15T04:22:13.538Z,691.43
2019-05-15T04:23:13.525Z,690.52
2019-05-15T04:24:13.519Z,691.47
2019-05-15T04:25:13.518Z,691.39
2019-05-15T04:26:13.543Z,691.74
2019-05-15T04:27:13.516Z,691.44
2019-05-15T04:28:13.519Z,691.41
2019-05-15T04:29:22.541Z,691.81
2019-05-15T04:30:13.521Z,691.77
2019-05-15T04:31:13.520Z,691.94
2019-05-15T04:32:13.554Z,691.99
2019-05-15T04:33:13.541Z,692.78
2019-05-15T04:34:32.420Z,692.81
2019-05-15T04:35:32.416Z,693.47
2019-05-15T04:36:32.393Z,693.66
2019-05-15T04:37:32.422Z,693.23
2019-05-15T04:38:32.418Z,693.07
2019-05-15T04:39:32.417Z,693.6
2019-05-15T04:40:32.399Z,694.35
2019-05-15T04:41:32.429Z,694.48
2019-05-15T04:42:32.437Z,694.96
2019-05-15T04:43:41.142Z,696.17
2019-05-15T04:44:32.432Z,696.83
2019-05-15T04:45:35.025Z,697.78
2019-05-15T04:46:32.405Z,699.7
2019-05-15T04:47:32.408Z,699.14
2019-05-15T04:48:32.445Z,700.12
2019-05-15T04:49:32.439Z,700.97
2019-05-15T04:50:32.433Z,701.59
2019-05-15T04:51:32.430Z,702.27
2019-05-15T04:52:32.442Z,703.64
2019-05-15T04:53:33.057Z,704.98
2019-05-15T04:54:32.418Z,706.45
2019-05-15T04:55:32.424Z,707.35
2019-05-15T04:56:32.433Z,709.01
2019-05-15T04:57:33.920Z,710.33
2019-05-15T04:58:32.424Z,711.26
2019-05-15T04:59:32.432Z,713.37
2019-05-15T05:00:32.458Z,714.01
2019-05-15T05:01:32.423Z,715.33
2019-05-15T05:02:32.670Z,716.94
2019-05-15T05:03:34.474Z,718.41
2019-05-15T05:04:32.461Z,719.56
2019-05-15T05:05:32.433Z,720.88
2019-05-15T05:06:32.597Z,722.99
2019-05-15T05:07:32.468Z,725.48
2019-05-15T05:08:32.453Z,727.63
2019-05-15T05:09:32.471Z,729.5
2019-05-15T05:10:32.443Z,731.89
2019-05-15T05:11:32.449Z,734.14
2019-05-15T05:12:32.441Z,736.35
2019-05-15T05:13:32.461Z,738.28
2019-05-15T05:14:32.474Z,740.56
2019-05-15T05:15:32.456Z,742.68
2019-05-15T05:16:32.621Z,744.65
2019-05-15T05:17:32.449Z,747.77
2019-05-15T05:18:32.474Z,749.61
2019-05-15T05:19:32.483Z,752.26
2019-05-15T05:20:32.467Z,755.62
2019-05-15T05:25:01.658Z,767.08
2019-05-15T05:26:01.628Z,769.32
2019-05-15T05:27:01.626Z,771.66
2019-05-15T05:28:01.592Z,774.36
2019-05-15T05:29:01.669Z,776.83
2019-05-15T05:30:01.600Z,779.25
2019-05-15T05:34:32.293Z,794.63
2019-05-15T05:35:32.271Z,797.15
2019-05-15T05:36:32.263Z,799.88
2019-05-15T05:37:32.265Z,802.48
2019-05-15T05:38:32.279Z,806.23
2019-05-15T05:39:32.281Z,809.59
2019-05-15T05:40:32.287Z,812.78
2019-05-15T05:41:32.297Z,814.8
2019-05-15T05:42:32.301Z,817.33
2019-05-15T05:43:32.286Z,819.05
2019-05-15T05:44:32.289Z,822.06
2019-05-15T05:45:33.106Z,825.47
2019-05-15T05:46:32.287Z,828.76
2019-05-15T05:47:32.274Z,832.01
2019-05-15T05:48:32.278Z,835.42
2019-05-15T05:49:32.305Z,838.74
2019-05-15T05:50:32.270Z,841.53
2019-05-15T05:51:32.293Z,844.36
2019-05-15T05:52:32.283Z,848.1
2019-05-15T05:53:32.294Z,850.95
2019-05-15T05:54:32.277Z,852.85
2019-05-15T05:55:32.318Z,855.74
2019-05-15T05:56:32.290Z,858.13
2019-05-15T05:57:32.297Z,860.74
2019-05-15T05:58:32.284Z,862.06
2019-05-15T05:59:32.340Z,864.43
2019-05-15T06:00:32.283Z,867.14
2019-05-15T06:01:35.549Z,870.25
2019-05-15T06:04:01.685Z,880.41
2019-05-15T06:05:01.695Z,886.42
2019-05-15T06:06:01.685Z,891.51
2019-05-15T06:07:09.408Z,895.54
2019-05-15T06:08:01.765Z,900.28
2019-05-15T06:09:01.685Z,904.55
2019-05-15T06:10:01.706Z,909.23
2019-05-15T06:11:01.709Z,913.49
2019-05-15T06:12:01.699Z,918.36
2019-05-15T06:13:02.235Z,922.69
2019-05-15T06:14:01.718Z,929.5
2019-05-15T06:15:01.948Z,948.27
2019-05-15T06:16:01.690Z,973.43
2019-05-15T06:17:01.700Z,997.06
2019-05-15T06:18:01.721Z,1013.92
2019-05-15T06:19:19.018Z,1030.93
2019-05-15T06:20:18.994Z,1040.22
2019-05-15T06:21:19.031Z,1051.52
2019-05-15T06:22:19.029Z,1060.46
2019-05-15T06:23:23.134Z,1070.72
2019-05-15T06:24:19.040Z,1080.45
2019-05-15T06:25:19.900Z,1087.78
2019-05-15T06:26:19.744Z,1090.49
2019-05-15T06:27:19.946Z,1089.9
2019-05-15T06:28:19.812Z,1088.72
2019-05-15T06:29:19.019Z,1086.52
2019-05-15T06:30:26.060Z,1084.29
2019-05-15T06:31:19.145Z,1082.46
2019-05-15T06:32:19.529Z,1083.79
2019-05-15T06:33:19.239Z,1087.04
2019-05-15T06:34:19.029Z,1093.11
2019-05-15T06:35:19.457Z,1097.98
2019-05-15T06:36:19.034Z,1102.78
2019-05-15T06:37:19.606Z,1106.94
2019-05-15T06:38:19.642Z,1110.98
2019-05-15T06:39:19.019Z,1114.65
2019-05-15T06:40:19.026Z,1117.94
2019-05-15T06:41:19.047Z,1120.46
2019-05-15T06:42:19.119Z,1121
2019-05-15T06:43:19.591Z,1121.28
2019-05-15T06:44:19.068Z,1122.61
2019-05-15T06:45:19.773Z,1123.53
2019-05-15T06:46:19.059Z,1124.22
2019-05-15T06:47:19.030Z,1124.8
2019-05-15T06:48:19.117Z,1123.75
2019-05-15T06:49:19.050Z,1121.18
2019-05-15T06:50:19.056Z,1117.37
2019-05-15T06:51:19.061Z,1112.72
2019-05-15T06:52:19.119Z,1107.22
2019-05-15T06:53:19.663Z,1101.43
2019-05-15T06:54:19.116Z,1095.57
2019-05-15T06:55:19.304Z,1089.99
2019-05-15T06:56:19.134Z,1083.71
2019-05-15T06:57:19.078Z,1078.34
2019-05-15T06:58:19.952Z,1072.99
2019-05-15T06:59:19.129Z,1067.55
2019-05-15T07:00:19.275Z,1062.98
2019-05-15T07:01:19.160Z,1058.45
2019-05-15T07:02:19.113Z,1054.01
2019-05-15T07:03:25.092Z,1049.34
2019-05-15T07:04:19.320Z,1044.71
2019-05-15T07:05:19.093Z,1040.89
2019-05-15T07:06:19.065Z,1037.22
2019-05-15T07:07:19.129Z,1034.31
2019-05-15T07:08:19.085Z,1031.22
2019-05-15T07:09:19.067Z,1028.53
2019-05-15T07:10:19.103Z,1025.98
2019-05-15T07:11:19.302Z,1023.97
2019-05-15T07:12:19.088Z,1022.97
2019-05-15T07:13:19.072Z,1021
2019-05-15T07:14:19.093Z,1019.46
2019-05-15T07:15:19.123Z,1017.77
2019-05-15T07:16:19.087Z,1017.56
2019-05-15T07:17:19.076Z,1017.44
2019-05-15T07:18:19.657Z,1017.37
2019-05-15T07:19:19.271Z,1017.39
2019-05-15T07:20:19.115Z,1017.84
2019-05-15T07:21:20.532Z,1017.47
2019-05-15T07:22:19.091Z,1016.82
2019-05-15T07:23:19.262Z,1016.9
2019-05-15T07:24:19.121Z,1017.15
2019-05-15T07:25:19.133Z,1016.79
2019-05-15T07:26:19.166Z,1016.36
2019-05-15T07:27:19.108Z,1016.54
2019-05-15T07:28:19.123Z,1016.4
2019-05-15T07:29:19.147Z,1016.79
2019-05-15T07:30:19.099Z,1017.24
2019-05-15T07:31:19.126Z,1017.75
2019-05-15T07:32:19.347Z,1018.24
2019-05-15T07:33:34.417Z,1018.6
2019-05-15T07:34:19.112Z,1018.46
2019-05-15T07:35:19.269Z,1019.12
2019-05-15T07:36:19.462Z,1019.86
2019-05-15T07:37:19.222Z,1020.75
2019-05-15T07:38:19.119Z,1022.29
2019-05-15T07:39:19.176Z,1023.32
2019-05-15T07:40:19.430Z,1024.45
2019-05-15T07:41:19.128Z,1024.59
2019-05-15T07:42:19.155Z,1025.27
2019-05-15T07:43:19.137Z,1026.58
2019-05-15T07:44:19.128Z,1027.48
2019-05-15T07:45:21.431Z,1028.82
2019-05-15T07:46:19.364Z,1030.78
2019-05-15T07:47:19.330Z,1032.64
2019-05-15T07:48:19.202Z,1034.29
2019-05-15T07:49:19.159Z,1035
2019-05-15T07:50:19.657Z,1035.2
2019-05-15T07:51:19.157Z,1035.13
2019-05-15T07:52:19.464Z,1034.96
2019-05-15T07:54:39.508Z,1033.79
2019-05-15T07:55:39.572Z,1034.03
2019-05-15T07:56:39.522Z,1034.19
2019-05-15T07:57:39.811Z,1033.74
2019-05-15T07:58:39.517Z,1032.6
2019-05-15T07:59:42.620Z,1031.7
2019-05-15T08:00:39.689Z,1031.38
2019-05-15T08:01:39.502Z,1031.34
2019-05-15T08:02:39.511Z,1031.24
2019-05-15T08:03:53.815Z,1031.77
2019-05-15T08:04:39.521Z,1031.7
2019-05-15T08:05:53.581Z,1031.45
2019-05-15T08:06:39.538Z,1030.61
2019-05-15T08:07:39.521Z,1029.9
2019-05-15T08:08:39.625Z,1030.88
2019-05-15T08:09:39.510Z,1032.03
2019-05-15T08:10:39.811Z,1033.69
2019-05-15T08:11:39.534Z,1035.65
2019-05-15T08:12:39.553Z,1037.93
2019-05-15T08:13:39.547Z,1039.68
2019-05-15T08:14:39.587Z,1041.37
2019-05-15T08:15:39.541Z,1042.02
2019-05-15T08:16:39.836Z,1042.83
2019-05-15T08:17:58.322Z,1044.89
2019-05-15T08:18:39.623Z,1045.57
2019-05-15T08:19:39.547Z,1046.47
2019-05-15T08:20:39.626Z,1047.48
2019-05-15T08:22:52.055Z,1049.88
2019-05-15T08:23:52.037Z,1051.05
2019-05-15T08:24:52.057Z,1052.92
2019-05-15T08:25:52.034Z,1054.49
2019-05-15T08:26:52.014Z,1056
2019-05-15T08:27:52.026Z,1056.71
2019-05-15T08:28:52.049Z,1056.76
2019-05-15T08:29:52.089Z,1057.11
2019-05-15T08:30:52.156Z,1057.18
2019-05-15T08:31:52.046Z,1056.68
2019-05-15T08:32:52.044Z,1055.35
2019-05-15T08:33:52.161Z,1054.99
2019-05-15T08:34:52.061Z,1055.39
2019-05-15T08:35:52.190Z,1056
2019-05-15T08:36:52.052Z,1057.28
2019-05-15T08:37:52.041Z,1057.99
2019-05-15T08:38:52.063Z,1059.18
2019-05-15T08:39:52.074Z,1060.26
2019-05-15T08:40:52.059Z,1061
2019-05-15T08:41:52.088Z,1061.13
2019-05-15T08:42:56.059Z,1060.91
2019-05-15T08:43:52.081Z,1060.04
2019-05-15T08:44:52.086Z,1058.47
2019-05-15T08:45:52.051Z,1058.12
2019-05-15T08:46:52.101Z,1058.67
2019-05-15T08:47:52.044Z,1059.95
2019-05-15T08:48:52.070Z,1060.8
2019-05-15T08:49:52.056Z,1061.23
2019-05-15T08:50:52.083Z,1062.35
2019-05-15T08:51:52.072Z,1063.58
2019-05-15T08:52:52.339Z,1064.05
2019-05-15T08:53:52.059Z,1063.76
2019-05-15T08:54:52.094Z,1062.74
2019-05-15T08:55:52.099Z,1061.78
2019-05-15T08:56:52.063Z,1060.43
2019-05-15T08:57:55.398Z,1059.9
2019-05-15T08:58:52.079Z,1059.27
2019-05-15T08:59:52.115Z,1058.73
2019-05-15T09:00:52.726Z,1057.74
2019-05-15T09:01:52.072Z,1057.07
2019-05-15T09:02:52.077Z,1057.14
2019-05-15T09:03:52.107Z,1057.49
2019-05-15T09:04:52.091Z,1058.14
2019-05-15T09:05:52.099Z,1059.6
2019-05-15T09:06:52.146Z,1060.49
2019-05-15T09:07:52.107Z,1061.13
2019-05-15T09:08:52.128Z,1062.09
2019-05-15T09:09:52.108Z,1062.74
2019-05-15T09:10:52.111Z,1064.2
2019-05-15T09:11:52.110Z,1065.14
2019-05-15T09:12:54.280Z,1065.53
2019-05-15T09:13:54.021Z,1066.04
2019-05-15T09:14:52.112Z,1066.56
2019-05-15T09:15:52.121Z,1066.99
2019-05-15T09:16:52.126Z,1067.47
2019-05-15T09:18:00.446Z,1067.86
2019-05-15T09:18:52.120Z,1067.9
2019-05-15T09:19:52.126Z,1067.57
2019-05-15T09:20:52.122Z,1067.53
2019-05-15T09:21:52.120Z,1067.8
2019-05-15T09:22:52.108Z,1068.03
2019-05-15T09:23:52.122Z,1068.27
2019-05-15T09:24:52.126Z,1068.08
2019-05-15T09:25:52.133Z,1067.83
2019-05-15T09:26:52.133Z,1067.98
2019-05-15T09:27:52.139Z,1069.01
2019-05-15T09:28:52.122Z,1070.69
2019-05-15T09:30:03.015Z,1071.97
2019-05-15T09:30:52.122Z,1072.98
2019-05-15T09:31:52.545Z,1074.2
2019-05-15T09:32:52.142Z,1075.22
2019-05-15T09:33:52.125Z,1076.34
2019-05-15T09:34:55.308Z,1077.33
2019-05-15T09:35:52.182Z,1077.96
2019-05-15T09:36:52.125Z,1080.02
2019-05-15T09:37:52.132Z,1083.7
2019-05-15T09:38:52.157Z,1086.62
2019-05-15T09:39:52.140Z,1090.55
2019-05-15T09:40:52.147Z,1093.46
2019-05-15T09:41:54.565Z,1095.46
2019-05-15T09:42:52.145Z,1099.08
2019-05-15T09:43:52.150Z,1102.27
2019-05-15T09:44:52.160Z,1106.11
2019-05-15T09:45:52.136Z,1108.95
2019-05-15T09:46:52.173Z,1111.88
2019-05-15T09:47:52.151Z,1114.91
2019-05-15T09:48:52.301Z,1117.78
2019-05-15T09:49:52.175Z,1121.22
2019-05-15T09:50:52.171Z,1124.8
2019-05-15T09:51:52.160Z,1126.92
2019-05-15T09:52:52.163Z,1128.22
2019-05-15T09:53:52.155Z,1129.2
2019-05-15T09:54:52.156Z,1130.58
2019-05-15T09:55:52.162Z,1132.12
2019-05-15T09:56:52.212Z,1133.5
2019-05-15T09:57:55.013Z,1134.15
2019-05-15T09:58:52.162Z,1134.71
2019-05-15T09:59:58.292Z,1134.56
2019-05-15T10:00:53.424Z,1134.15
2019-05-15T10:01:53.412Z,1134.3
2019-05-15T10:02:52.187Z,1134.59
2019-05-15T10:03:52.208Z,1134.65
2019-05-15T10:05:05.335Z,1134.84
2019-05-15T10:05:52.184Z,1134.4
2019-05-15T10:06:52.218Z,1134.59
2019-05-15T10:07:52.195Z,1134.67
2019-05-15T10:10:12.095Z,1133.38
2019-05-15T10:11:12.043Z,1132.28
2019-05-15T10:12:12.052Z,1131.99
2019-05-15T10:13:12.040Z,1131.33
2019-05-15T10:14:12.023Z,1130.8
2019-05-15T10:15:12.052Z,1129.68
2019-05-15T10:16:12.057Z,1128.86
2019-05-15T10:17:12.020Z,1128.37
2019-05-15T10:18:12.060Z,1127.83
2019-05-15T10:19:12.054Z,1127.36
2019-05-15T10:20:12.044Z,1127.15
2019-05-15T10:21:12.032Z,1126.55
2019-05-15T10:22:12.117Z,1127.05
2019-05-15T10:23:12.060Z,1127.83
2019-05-15T10:24:12.057Z,1129.33
2019-05-15T10:25:12.054Z,1130.47
2019-05-15T10:26:14.084Z,1130.74
2019-05-15T10:27:12.068Z,1132.09
2019-05-15T10:28:15.103Z,1133.28
2019-05-15T10:29:12.062Z,1133.87
2019-05-15T10:30:12.089Z,1134.37
2019-05-15T10:31:12.077Z,1134.63
2019-05-15T10:32:12.064Z,1135.01
2019-05-15T10:36:41.931Z,1137.13
2019-05-15T10:37:41.950Z,1137.07
2019-05-15T10:38:41.958Z,1137.13
2019-05-15T10:39:41.929Z,1137.53
2019-05-15T10:40:58.424Z,1137.88
2019-05-15T10:41:41.943Z,1137.89
2019-05-15T10:42:41.964Z,1137.91
2019-05-15T10:44:48.243Z,1137.91
2019-05-15T10:45:02.192Z,1138.1
2019-05-15T10:46:02.179Z,1138.11
2019-05-15T10:47:02.131Z,1138.13
2019-05-15T10:48:02.095Z,1137.97
2019-05-15T10:49:02.179Z,1137.84
2019-05-15T10:50:02.168Z,1138.21
2019-05-15T10:51:07.023Z,1138.32
2019-05-15T10:52:02.102Z,1138.08
2019-05-15T10:53:02.170Z,1138.06
2019-05-15T10:55:24.461Z,1137.87
2019-05-15T10:56:24.316Z,1137.61
2019-05-15T10:57:24.310Z,1137.51
2019-05-15T10:58:24.318Z,1137.35
2019-05-15T10:59:24.304Z,1137.04
2019-05-15T11:00:24.323Z,1136.48
2019-05-15T11:01:24.308Z,1136.04
2019-05-15T11:02:24.335Z,1135.41
2019-05-15T11:03:24.308Z,1134.46
2019-05-15T11:04:24.318Z,1133.65
2019-05-15T11:05:38.184Z,1132.95
2019-05-15T11:06:24.322Z,1132.05
2019-05-15T11:07:24.314Z,1131.07
2019-05-15T11:08:24.319Z,1130.07
2019-05-15T11:09:24.344Z,1129.59
2019-05-15T11:10:24.330Z,1128.75
2019-05-15T11:11:24.322Z,1128.89
2019-05-15T11:12:24.350Z,1129.4
2019-05-15T11:13:24.329Z,1130.31
2019-05-15T11:14:24.335Z,1131.18
2019-05-15T11:15:24.342Z,1131.02
2019-05-15T11:16:24.349Z,1130.77
2019-05-15T11:17:24.334Z,1131.71
2019-05-15T11:18:24.390Z,1132.49
2019-05-15T11:19:24.335Z,1132.87
2019-05-15T11:20:24.389Z,1134.32
2019-05-15T11:21:24.362Z,1134.76
2019-05-15T11:22:24.367Z,1134.95
2019-05-15T11:23:24.341Z,1135.06
2019-05-15T11:24:24.363Z,1135.45
2019-05-15T11:25:24.355Z,1135.58
2019-05-15T11:26:24.361Z,1135.53
2019-05-15T11:27:24.346Z,1135.48
2019-05-15T11:28:24.470Z,1135.68
2019-05-15T11:29:24.373Z,1135.96
2019-05-15T11:30:24.385Z,1136.39
2019-05-15T11:31:24.992Z,1136.67
2019-05-15T11:32:24.372Z,1136.93
2019-05-15T11:33:24.388Z,1137.23
2019-05-15T11:34:24.373Z,1137.31
2019-05-15T11:35:24.373Z,1137.09
2019-05-15T11:36:24.460Z,1136.9
2019-05-15T11:37:24.385Z,1136.42
2019-05-15T11:38:24.393Z,1135.77
2019-05-15T11:39:24.379Z,1135.18
2019-05-15T11:40:24.406Z,1134.86
2019-05-15T11:41:24.410Z,1135.09
2019-05-15T11:42:24.401Z,1135.88
2019-05-15T11:43:24.383Z,1136.83
2019-05-15T11:44:24.410Z,1137.27
2019-05-15T11:45:24.379Z,1137.55
2019-05-15T11:46:25.711Z,1137.8
2019-05-15T11:47:24.390Z,1137.75
2019-05-15T11:48:24.424Z,1137.84
2019-05-15T11:49:24.403Z,1137.74
2019-05-15T11:50:24.392Z,1137.56
2019-05-15T11:51:24.422Z,1137.3
2019-05-15T11:52:24.426Z,1137.41
2019-05-15T11:53:24.411Z,1137.51
2019-05-15T11:54:24.416Z,1137.56
2019-05-15T11:55:24.428Z,1137.33
2019-05-15T11:56:24.411Z,1136.92
2019-05-15T11:57:37.144Z,1136.84
2019-05-15T12:00:16.034Z,1137.38
2019-05-15T12:01:03.459Z,1137.62
2019-05-15T12:02:03.732Z,1137.71
2019-05-15T12:03:03.454Z,1137.71
2019-05-15T12:04:03.466Z,1137.67
2019-05-15T12:05:03.487Z,1137.68
2019-05-15T12:06:14.758Z,1137.62
2019-05-15T12:07:03.479Z,1137.68
2019-05-15T12:08:03.526Z,1137.62
2019-05-15T12:09:03.450Z,1137.64
2019-05-15T12:10:03.480Z,1137.79
2019-05-15T12:11:03.493Z,1137.71
2019-05-15T12:12:03.453Z,1137.57
2019-05-15T12:13:03.478Z,1137.41
2019-05-15T12:14:03.464Z,1137.49
2019-05-15T12:15:03.509Z,1137.46
2019-05-15T12:16:03.476Z,1137.41
2019-05-15T12:17:11.092Z,1137.39
2019-05-15T12:18:03.507Z,1137.34
2019-05-15T12:19:08.853Z,1137.46
2019-05-15T12:21:28.375Z,1137.64
2019-05-15T12:22:28.729Z,1137.77
2019-05-15T12:23:28.833Z,1137.86
2019-05-15T12:24:32.527Z,1137.79
2019-05-15T12:26:45.591Z,1137.78
2019-05-15T12:27:45.595Z,1137.74
2019-05-15T12:28:45.578Z,1137.74
2019-05-15T12:30:19.856Z,1137.81
2019-05-15T12:31:24.356Z,1137.9
2019-05-15T12:32:30.049Z,1137.83
2019-05-15T12:34:49.918Z,1137.62
2019-05-15T12:35:50.906Z,1137.37
2019-05-15T12:36:56.577Z,1137.15
2019-05-15T13:00:35.679Z,1134.34
2019-05-15T13:01:35.671Z,1134.88
2019-05-15T13:02:35.750Z,1134.8
2019-05-15T13:03:37.695Z,1134.58
2019-05-15T13:04:35.727Z,1134.65
2019-05-15T13:05:35.678Z,1134.69
2019-05-15T13:06:47.626Z,1135.05
2019-05-15T13:07:37.792Z,1135.33
2019-05-15T13:08:38.285Z,1135.68
2019-05-15T13:09:38.013Z,1136.25
2019-05-15T13:10:38.068Z,1136.45
2019-05-15T13:11:37.686Z,1136.43
2019-05-15T13:12:38.776Z,1136.07
2019-05-15T13:13:37.594Z,1135.49
2019-05-15T13:14:35.734Z,1135.05
2019-05-15T13:15:35.732Z,1134.63
2019-05-15T13:16:35.748Z,1133.99
2019-05-15T13:17:38.526Z,1133.45
2019-05-15T13:18:35.718Z,1132.8
2019-05-15T13:19:35.778Z,1132.01
2019-05-15T13:20:38.152Z,1130.98
2019-05-15T13:21:37.899Z,1129.71
2019-05-15T13:22:36.465Z,1128
2019-05-15T13:23:35.836Z,1126.79
2019-05-15T13:24:35.780Z,1125.27
2019-05-15T13:25:35.881Z,1123.38
2019-05-15T13:26:35.773Z,1122.13
2019-05-15T13:27:37.960Z,1121.31
2019-05-15T13:28:35.725Z,1120.48